Time;durP1;ratioP1;P1;durP2;ratioP2;P2;SDS_P1;SDS_P2;PMS_P1;PMS_P2;Temp;Humidity;BMP_temperature;BMP_pressure;BME280_temperature;BME280_humidity;BME280_pressure;Samples;Min_cycle;Max_cycle;Signal;HPM_P1;HPM_P2
2022/06/30 00:00:38;;;;;;;3.97;3.58;;;;;;;19.14;63.04;100782.16;7392342;19;20350;-67
2022/06/30 00:03:07;;;;;;;5.60;3.35;;;;;;;19.15;62.72;100778.56;7392628;19;20035;-67
2022/06/30 00:05:38;;;;;;;4.93;3.80;;;;;;;19.16;62.91;100777.59;7392181;19;20010;-67
2022/06/30 00:08:07;;;;;;;6.10;3.78;;;;;;;19.17;62.90;100777.53;7392383;19;20014;-67
2022/06/30 00:10:36;;;;;;;4.35;3.47;;;;;;;19.18;62.32;100787.22;7393865;19;20477;-67
2022/06/30 00:13:04;;;;;;;3.45;3.15;;;;;;;19.21;62.81;100783.53;7393830;19;20513;-67
2022/06/30 00:15:35;;;;;;;3.38;3.08;;;;;;;19.24;62.49;100782.47;7392051;19;20082;-67
2022/06/30 00:18:03;;;;;;;3.60;3.20;;;;;;;19.25;62.32;100774.41;7392634;19;20018;-67
2022/06/30 00:20:32;;;;;;;4.32;3.45;;;;;;;19.27;62.46;100776.97;7391926;19;20014;-67
2022/06/30 00:23:03;;;;;;;5.78;3.78;;;;;;;19.28;62.16;100768.91;7393644;19;20520;-67
2022/06/30 00:25:32;;;;;;;3.53;2.80;;;;;;;19.32;62.02;100765.13;7393936;19;20018;-67
2022/06/30 00:28:00;;;;;;;3.67;3.20;;;;;;;19.35;61.85;100759.63;7391675;19;20026;-67
2022/06/30 00:30:29;;;;;;;4.65;2.95;;;;;;;19.36;61.75;100766.66;7391705;19;20039;-67
2022/06/30 00:32:58;;;;;;;4.25;3.25;;;;;;;19.37;61.43;100757.75;7393320;19;20503;-68
2022/06/30 00:35:26;;;;;;;3.50;2.95;;;;;;;19.38;61.41;100761.25;7391955;19;20014;-67
2022/06/30 00:37:55;;;;;;;3.67;3.20;;;;;;;19.39;61.45;100754.16;7391324;19;20018;-67
2022/06/30 00:40:26;;;;;;;4.25;2.97;;;;;;;19.39;60.91;100748.81;7393465;19;20018;-67
2022/06/30 00:42:54;;;;;;;3.72;2.97;;;;;;;19.40;61.16;100753.16;7393052;19;20417;-67
2022/06/30 00:45:23;;;;;;;4.00;2.83;;;;;;;19.41;60.75;100744.25;7390738;19;20384;-67
2022/06/30 00:47:51;;;;;;;3.75;3.13;;;;;;;19.42;60.81;100749.47;7395077;19;20018;-68
2022/06/30 00:50:20;;;;;;;3.47;3.10;;;;;;;19.42;60.60;100738.84;7397546;19;20413;-66
2022/06/30 00:52:52;;;;;;;6.00;3.08;;;;;;;19.44;60.77;100741.44;7400319;19;20078;-66
2022/06/30 00:55:22;;;;;;;3.90;2.60;;;;;;;19.44;60.79;100736.09;7397486;19;20028;-66
2022/06/30 00:57:55;;;;;;;3.60;3.30;;;;;;;19.45;60.48;100740.44;7398064;19;20469;-66
2022/06/30 01:00:24;;;;;;;3.83;3.13;;;;;;;19.47;60.78;100741.22;7398181;19;20023;-66
2022/06/30 01:02:53;;;;;;;5.82;3.58;;;;;;;19.47;60.09;100750.06;7400163;19;20022;-67
2022/06/30 01:05:23;;;;;;;4.10;3.08;;;;;;;19.48;60.20;100753.59;7400052;19;20025;-66
2022/06/30 01:07:53;;;;;;;4.80;3.35;;;;;;;19.49;60.13;100742.00;7396929;19;20015;-66
2022/06/30 01:13:05;;;;;;;3.38;3.08;;;;;;;19.50;60.07;100743.72;7400857;19;20480;-67
2022/06/30 01:15:34;;;;;;;3.63;3.28;;;;;;;19.49;60.16;100734.88;7397562;19;20019;-67
2022/06/30 01:18:03;;;;;;;4.55;3.28;;;;;;;19.50;60.21;100741.91;7396748;19;20027;-67
2022/06/30 01:20:33;;;;;;;4.10;3.55;;;;;;;19.50;59.77;100747.22;7400573;19;20018;-69
2022/06/30 01:23:06;;;;;;;4.25;2.92;;;;;;;19.50;59.91;100738.41;7400491;19;20007;-68
2022/06/30 01:25:37;;;;;;;4.03;3.20;;;;;;;19.53;60.03;100738.22;7397556;19;20098;-67
2022/06/30 01:28:06;;;;;;;4.63;3.28;;;;;;;19.54;59.73;100737.25;7397066;19;20023;-67
2022/06/30 01:30:35;;;;;;;4.57;3.72;;;;;;;19.57;59.84;100742.38;7396878;19;20039;-67
2022/06/30 01:33:03;;;;;;;4.25;3.42;;;;;;;19.57;59.69;100742.38;7398777;19;20481;-67
2022/06/30 01:35:32;;;;;;;6.57;3.00;;;;;;;19.59;60.16;100739.63;7397531;19;20028;-67
2022/06/30 01:38:03;;;;;;;5.78;3.67;;;;;;;19.58;59.74;100735.28;7396704;19;20370;-67
2022/06/30 01:40:34;;;;;;;3.67;3.22;;;;;;;19.57;59.83;100736.22;7398898;19;20025;-67
2022/06/30 01:43:05;;;;;;;6.32;3.42;;;;;;;19.55;60.14;100728.34;7398888;19;20031;-67
2022/06/30 01:45:34;;;;;;;3.90;3.50;;;;;;;19.52;59.79;100731.16;7396850;19;20033;-67
2022/06/30 01:48:02;;;;;;;4.13;3.15;;;;;;;19.51;60.06;100727.66;7396784;19;20018;-67
2022/06/30 01:50:33;;;;;;;3.53;3.22;;;;;;;19.50;60.11;100728.59;7398397;19;20097;-67
2022/06/30 01:53:05;;;;;;;4.80;3.35;;;;;;;19.48;60.13;100727.00;7398006;19;20514;-67
2022/06/30 01:55:33;;;;;;;4.60;3.53;;;;;;;19.46;60.06;100724.41;7397489;19;20031;-67
2022/06/30 01:58:02;;;;;;;5.22;3.40;;;;;;;19.46;60.01;100721.75;7395357;19;20022;-67
2022/06/30 02:00:31;;;;;;;3.97;3.20;;;;;;;19.46;60.25;100718.22;7398224;19;20039;-67
2022/06/30 02:03:00;;;;;;;4.45;3.20;;;;;;;19.46;60.42;100721.75;7398142;19;20034;-67
2022/06/30 02:05:29;;;;;;;4.65;3.72;;;;;;;19.48;60.12;100711.03;7398008;19;20019;-67
2022/06/30 02:07:57;;;;;;;3.60;3.30;;;;;;;19.49;60.39;100707.41;7395719;19;20026;-67
2022/06/30 02:10:29;;;;;;;6.35;3.38;;;;;;;19.49;60.31;100708.25;7397863;19;20021;-67
2022/06/30 02:12:57;;;;;;;4.32;3.22;;;;;;;19.48;60.31;100706.53;7395456;19;20015;-67
2022/06/30 02:15:32;;;;;;;4.63;3.13;;;;;;;19.47;60.31;100702.16;7396348;19;20022;-67
2022/06/30 02:18:02;;;;;;;6.03;3.25;;;;;;;19.44;60.21;100696.19;7397095;19;20019;-68
2022/06/30 02:20:31;;;;;;;4.43;3.20;;;;;;;19.44;60.17;100697.03;7395690;19;20033;-66
2022/06/30 02:23:01;;;;;;;5.45;3.45;;;;;;;19.42;60.42;100703.41;7395043;19;20431;-67
2022/06/30 02:25:33;;;;;;;5.40;3.28;;;;;;;19.41;60.48;100701.69;7397705;19;20026;-67
2022/06/30 02:28:05;;;;;;;3.85;3.45;;;;;;;19.39;60.44;100701.78;7395673;19;20032;-67
2022/06/30 02:30:33;;;;;;;4.45;3.45;;;;;;;19.40;60.23;100692.84;7395482;19;20026;-67
2022/06/30 02:33:02;;;;;;;4.65;3.20;;;;;;;19.41;60.44;100694.56;7396930;19;20014;-67
2022/06/30 02:35:31;;;;;;;5.10;3.50;;;;;;;19.42;60.41;100693.59;7395208;19;20019;-67
2022/06/30 02:38:00;;;;;;;4.50;3.55;;;;;;;19.44;60.28;100689.06;7394672;19;20025;-67
2022/06/30 02:40:28;;;;;;;5.88;3.92;;;;;;;19.46;60.26;100696.94;7396323;19;20019;-67
2022/06/30 02:42:59;;;;;;;5.70;3.45;;;;;;;19.46;60.41;100691.63;7396219;19;20018;-67
2022/06/30 02:45:28;;;;;;;4.20;3.50;;;;;;;19.46;59.92;100694.28;7394708;19;20011;-67
2022/06/30 02:47:58;;;;;;;4.68;3.40;;;;;;;19.46;60.21;100680.97;7394703;19;20035;-67
2022/06/30 02:50:27;;;;;;;4.80;3.83;;;;;;;19.45;60.22;100685.47;7396103;19;20073;-67
2022/06/30 02:52:55;;;;;;;3.45;3.15;;;;;;;19.45;60.52;100680.13;7396240;19;20019;-67
2022/06/30 02:55:24;;;;;;;4.78;3.95;;;;;;;19.45;60.44;100672.16;7394083;19;20027;-67
2022/06/30 02:57:53;;;;;;;3.75;3.45;;;;;;;19.45;60.32;100665.97;7394109;19;20018;-67
2022/06/30 03:00:24;;;;;;;6.45;3.95;;;;;;;19.45;60.41;100668.63;7396005;19;20086;-67
2022/06/30 03:03:02;;;;;;;;;;;;;;;;;;;;;
2022/06/30 03:05:25;;;;;;;5.18;3.97;;;;;;;19.45;60.28;100672.16;7395817;19;20007;-67
2022/06/30 03:07:54;;;;;;;3.97;3.67;;;;;;;19.46;60.41;100673.88;7394673;19;20383;-67
2022/06/30 03:10:22;;;;;;;4.28;3.60;;;;;;;19.46;60.13;100675.66;7393400;19;20484;-67
2022/06/30 03:12:50;;;;;;;4.60;3.53;;;;;;;19.47;60.19;100670.25;7395834;19;20022;-67
2022/06/30 03:15:19;;;;;;;4.80;3.50;;;;;;;19.49;60.54;100675.50;7395226;19;20022;-67
2022/06/30 03:17:50;;;;;;;6.30;3.40;;;;;;;19.51;60.05;100670.91;7393725;19;20433;-67
2022/06/30 03:20:19;;;;;;;3.95;3.55;;;;;;;19.52;60.43;100670.84;7394307;19;20019;-69
2022/06/30 03:22:47;;;;;;;12.13;6.90;;;;;;;19.52;60.27;100664.66;7394056;19;20043;-67
2022/06/30 03:25:16;;;;;;;5.82;4.00;;;;;;;19.54;60.45;100662.75;7393441;19;20031;-67
2022/06/30 03:27:44;;;;;;;4.78;3.60;;;;;;;19.56;60.66;100665.31;7394224;19;20020;-67
2022/06/30 03:30:13;;;;;;;5.95;3.80;;;;;;;19.57;60.36;100667.88;7393325;19;20379;-67
2022/06/30 03:32:42;;;;;;;3.92;3.50;;;;;;;19.59;60.41;100673.09;7394785;19;20011;-67
2022/06/30 03:35:13;;;;;;;6.32;3.47;;;;;;;19.62;60.26;100675.59;7394403;19;20032;-67
2022/06/30 03:37:42;;;;;;;8.65;5.78;;;;;;;19.63;60.25;100672.84;7393859;19;20011;-67
2022/06/30 03:40:12;;;;;;;6.53;4.45;;;;;;;19.66;60.50;100678.00;7394195;19;20022;-67
2022/06/30 03:42:40;;;;;;;5.47;4.35;;;;;;;19.68;60.55;100678.72;7394032;19;20390;-67
2022/06/30 03:45:11;;;;;;;4.03;3.63;;;;;;;19.69;60.36;100677.78;7392854;19;20015;-67
2022/06/30 03:47:39;;;;;;;6.43;3.97;;;;;;;19.72;60.35;100673.25;7393640;19;20434;-67
2022/06/30 03:50:09;;;;;;;6.57;3.67;;;;;;;19.73;60.47;100682.91;7394220;19;20018;-67
2022/06/30 03:52:40;;;;;;;5.13;3.95;;;;;;;19.72;60.88;100681.22;7392587;19;20018;-67
2022/06/30 03:55:09;;;;;;;4.18;3.42;;;;;;;19.72;60.73;100682.06;7393905;19;20484;-67
2022/06/30 03:57:38;;;;;;;7.43;4.25;;;;;;;19.73;60.91;100678.47;7393221;19;20093;-67
2022/06/30 04:00:08;;;;;;;6.95;3.97;;;;;;;19.72;60.76;100675.91;7394774;19;20028;-67
2022/06/30 04:02:36;;;;;;;4.45;4.05;;;;;;;19.78;61.14;100678.19;7393749;19;20035;-66
2022/06/30 04:05:06;;;;;;;4.25;3.58;;;;;;;19.80;61.10;100674.47;7392107;19;20022;-67
2022/06/30 04:07:34;;;;;;;6.43;5.00;;;;;;;19.83;61.33;100676.13;7392259;19;20029;-68
2022/06/30 04:10:06;;;;;;;6.80;3.65;;;;;;;19.85;61.23;100675.09;7393446;19;20024;-68
2022/06/30 04:12:34;;;;;;;5.70;3.55;;;;;;;19.89;61.47;100677.53;7394129;19;20039;-66
2022/06/30 04:15:03;;;;;;;13.50;3.45;;;;;;;19.92;61.45;100680.88;7393656;19;20032;-67
2022/06/30 04:17:33;;;;;;;4.00;3.55;;;;;;;19.94;61.20;100676.31;7392478;19;20035;-67
2022/06/30 04:20:02;;;;;;;4.35;3.67;;;;;;;19.99;61.38;100678.66;7393095;19;20074;-67
2022/06/30 04:22:30;;;;;;;4.32;3.45;;;;;;;20.01;61.51;100672.28;7396932;19;20027;-67
2022/06/30 04:25:08;;;;;;;5.43;3.58;;;;;;;20.05;61.30;100682.78;7398717;19;20035;-67
2022/06/30 04:27:36;;;;;;;27.45;4.57;;;;;;;20.07;61.74;100688.84;7399231;19;20032;-67
2022/06/30 04:30:06;;;;;;;7.43;3.90;;;;;;;20.11;61.67;100688.56;7397700;19;20505;-67
2022/06/30 04:32:38;;;;;;;5.53;4.38;;;;;;;20.15;61.58;100687.41;7397896;19;20082;-67
2022/06/30 04:35:08;;;;;;;6.00;3.80;;;;;;;20.19;61.82;100677.41;7397779;19;20018;-67
2022/06/30 04:37:37;;;;;;;4.28;3.88;;;;;;;20.23;61.62;100676.25;7398281;19;20025;-68
2022/06/30 04:42:53;;;;;;;9.90;3.85;;;;;;;20.29;61.48;100673.22;7395349;19;20043;-67
2022/06/30 04:45:22;;;;;;;4.78;3.70;;;;;;;20.32;61.55;100670.38;7397831;19;20014;-67
2022/06/30 04:47:50;;;;;;;4.32;3.80;;;;;;;20.37;61.59;100666.56;7397903;19;20022;-66
2022/06/30 04:50:19;;;;;;;5.47;3.78;;;;;;;20.42;61.55;100664.44;7399924;19;20085;-68
2022/06/30 04:52:47;;;;;;;4.38;3.65;;;;;;;20.45;61.45;100666.94;7399653;19;20031;-67
2022/06/30 04:55:18;;;;;;;6.13;3.80;;;;;;;20.48;61.98;100653.38;7399006;19;20079;-67
2022/06/30 04:57:47;;;;;;;3.95;3.47;;;;;;;20.48;62.07;100656.91;7396183;19;20510;-67
2022/06/30 05:00:16;;;;;;;5.38;4.00;;;;;;;20.50;61.71;100662.16;7399152;19;20341;-67
2022/06/30 05:02:45;;;;;;;6.75;4.40;;;;;;;20.53;62.06;100661.94;7396340;19;20031;-67
2022/06/30 05:05:13;;;;;;;4.18;3.78;;;;;;;20.56;62.12;100661.75;7395394;19;20018;-67
2022/06/30 05:07:42;;;;;;;5.82;4.20;;;;;;;20.60;62.41;100668.59;7395438;19;20018;-67
2022/06/30 05:10:10;;;;;;;7.30;4.22;;;;;;;20.63;62.89;100667.53;7395768;19;20086;-67
2022/06/30 05:12:41;;;;;;;3.65;3.35;;;;;;;20.67;62.80;100666.38;7398793;19;20010;-67
2022/06/30 05:15:11;;;;;;;5.13;4.35;;;;;;;20.71;62.99;100670.56;7396412;19;20488;-67
2022/06/30 05:17:39;;;;;;;7.28;4.10;;;;;;;20.73;63.04;100668.66;7395593;19;20346;-68
2022/06/30 05:20:09;;;;;;;4.55;4.05;;;;;;;20.76;63.49;100667.59;7394382;19;20093;-68
2022/06/30 05:22:38;;;;;;;4.95;4.45;;;;;;;20.77;63.52;100675.50;7397963;19;20022;-67
2022/06/30 05:27:51;;;;;;;6.10;4.45;;;;;;;20.77;63.74;100677.31;7394268;19;20011;-67
2022/06/30 05:30:19;;;;;;;5.00;3.95;;;;;;;20.73;64.30;100678.47;7396727;19;20023;-67
2022/06/30 05:32:48;;;;;;;6.88;5.00;;;;;;;20.72;64.12;100676.78;7394260;19;20354;-67
2022/06/30 05:35:17;;;;;;;5.35;4.45;;;;;;;20.71;64.83;100691.03;7395867;19;20022;-67
2022/06/30 05:37:52;;;;;;;4.97;4.40;;;;;;;20.70;64.46;100679.50;7395614;19;20023;-67
2022/06/30 05:40:21;;;;;;;5.10;4.60;;;;;;;20.71;64.77;100683.06;7397679;19;20021;-68
2022/06/30 05:42:52;;;;;;;5.30;4.55;;;;;;;20.71;64.91;100680.38;7395343;19;20018;-68
2022/06/30 05:45:20;;;;;;;5.63;4.43;;;;;;;20.73;65.19;100681.16;7394968;19;20010;-66
2022/06/30 05:47:50;;;;;;;5.82;4.50;;;;;;;20.74;65.31;100678.38;7396350;19;20014;-66
2022/06/30 05:50:18;;;;;;;5.20;4.70;;;;;;;20.78;65.20;100689.69;7395744;19;20019;-67
2022/06/30 05:52:50;;;;;;;5.00;4.50;;;;;;;20.80;65.46;100687.78;7397866;19;20014;-67
2022/06/30 05:55:19;;;;;;;6.32;4.40;;;;;;;20.82;65.24;100688.53;7397346;19;20540;-68
2022/06/30 05:57:56;;;;;;;7.50;5.28;;;;;;;20.85;65.39;100690.97;7395101;19;20033;-67
2022/06/30 06:00:27;;;;;;;7.75;4.45;;;;;;;20.90;65.39;100694.22;7396217;19;20010;-68
2022/06/30 06:02:56;;;;;;;4.45;3.95;;;;;;;20.96;65.63;100680.47;7396842;19;20418;-68
2022/06/30 06:05:25;;;;;;;5.22;4.47;;;;;;;21.03;65.24;100674.72;7396250;19;20015;-67
2022/06/30 06:07:54;;;;;;;5.75;4.50;;;;;;;21.05;65.51;100678.16;7394655;19;20373;-66
2022/06/30 06:10:22;;;;;;;7.00;5.00;;;;;;;21.06;65.43;100667.38;7396972;19;20018;-67
2022/06/30 06:12:54;;;;;;;6.07;5.35;;;;;;;21.06;65.43;100667.38;7394287;19;20102;-67
2022/06/30 06:15:22;;;;;;;5.80;4.75;;;;;;;21.07;65.85;100662.91;7396166;19;20027;-67
2022/06/30 06:17:51;;;;;;;5.30;4.05;;;;;;;21.05;65.59;100663.00;7393939;19;20414;-67
2022/06/30 06:20:20;;;;;;;5.65;4.63;;;;;;;21.11;65.60;100662.59;7394495;19;20022;-67
2022/06/30 06:22:49;;;;;;;6.50;5.20;;;;;;;21.15;65.47;100668.56;7396659;19;20514;-67
2022/06/30 06:25:18;;;;;;;5.40;4.88;;;;;;;21.20;65.46;100666.44;7396761;19;20026;-68
2022/06/30 06:29:05;;;;;;;8.18;6.03;;;;;;;21.28;65.10;100669.47;7394513;19;20477;-68
2022/06/30 06:30:36;;;;;;;8.15;5.70;;;;;;;21.35;65.39;100669.88;7395734;19;20495;-67
2022/06/30 06:33:04;;;;;;;6.38;5.30;;;;;;;21.47;65.17;100678.84;7394423;19;20367;-68
2022/06/30 06:35:33;;;;;;;5.82;5.32;;;;;;;21.54;64.51;100666.81;7393552;19;20039;-66
2022/06/30 06:38:01;;;;;;;6.65;5.32;;;;;;;21.61;64.42;100677.94;7393142;19;20021;-67
2022/06/30 06:40:30;;;;;;;12.75;5.35;;;;;;;21.67;64.23;100682.00;7395676;19;20014;-66
2022/06/30 06:42:59;;;;;;;7.95;5.75;;;;;;;21.75;64.08;100693.84;7394879;19;20035;-66
2022/06/30 06:45:27;;;;;;;10.65;6.28;;;;;;;21.83;64.00;100696.00;7394253;19;20018;-68
2022/06/30 06:47:58;;;;;;;6.97;5.35;;;;;;;21.92;63.94;100691.81;7393862;19;20015;-67
2022/06/30 06:50:27;;;;;;;5.97;5.30;;;;;;;22.02;63.27;100697.38;7394857;19;20027;-66
2022/06/30 06:52:55;;;;;;;8.75;6.95;;;;;;;22.09;63.22;100706.63;7393605;19;20015;-66
2022/06/30 06:55:24;;;;;;;8.57;6.32;;;;;;;22.16;63.43;100718.59;7394186;19;20010;-66
2022/06/30 06:57:53;;;;;;;6.30;4.60;;;;;;;22.24;62.81;100716.25;7394080;19;20031;-66
2022/06/30 07:00:21;;;;;;;7.85;5.63;;;;;;;22.33;62.47;100713.88;7395243;19;20489;-67
2022/06/30 07:02:49;;;;;;;5.15;4.65;;;;;;;22.41;61.78;100727.59;7395234;19;20021;-67
2022/06/30 07:05:21;;;;;;;9.32;6.60;;;;;;;22.47;61.64;100720.94;7393597;19;20014;-66
2022/06/30 07:07:57;;;;;;;6.75;5.25;;;;;;;22.51;61.71;100717.94;7394093;19;20022;-67
2022/06/30 07:10:26;;;;;;;6.95;4.97;;;;;;;22.58;61.51;100708.50;7395813;19;20014;-66
2022/06/30 07:12:55;;;;;;;5.78;5.00;;;;;;;22.65;61.42;100708.06;7395317;19;20021;-66
2022/06/30 07:15:24;;;;;;;6.03;4.70;;;;;;;22.68;60.84;100697.13;7394408;19;20031;-66
2022/06/30 07:17:52;;;;;;;6.03;5.43;;;;;;;22.72;61.01;100702.16;7392833;19;20015;-67
2022/06/30 07:20:24;;;;;;;6.35;4.95;;;;;;;22.76;60.76;100692.91;7392106;19;20014;-67
2022/06/30 07:22:52;;;;;;;6.18;4.82;;;;;;;22.79;60.52;100699.84;7392698;19;20351;-67
2022/06/30 07:25:21;;;;;;;7.38;5.80;;;;;;;22.81;60.15;100697.94;7392757;19;20416;-70
2022/06/30 07:27:49;;;;;;;6.40;5.32;;;;;;;22.83;60.32;100703.16;7393533;19;20025;-69
2022/06/30 07:30:18;;;;;;;6.47;4.40;;;;;;;22.83;59.85;100695.13;7394375;19;20025;-67
2022/06/30 07:32:46;;;;;;;6.72;4.95;;;;;;;22.80;59.93;100696.22;7392837;19;20022;-68
2022/06/30 07:35:15;;;;;;;5.85;5.03;;;;;;;22.78;59.86;100692.78;7394394;19;20017;-67
2022/06/30 07:37:46;;;;;;;7.63;4.88;;;;;;;22.77;60.04;100694.63;7392215;19;20090;-67
2022/06/30 07:40:15;;;;;;;11.52;5.30;;;;;;;22.72;60.09;100685.22;7394489;19;20047;-66
2022/06/30 07:42:44;;;;;;;6.80;5.10;;;;;;;22.66;60.18;100683.88;7392698;19;20019;-68
2022/06/30 07:45:14;;;;;;;5.90;5.28;;;;;;;22.69;60.08;100688.97;7392742;19;20010;-67
2022/06/30 07:47:46;;;;;;;7.38;4.60;;;;;;;22.69;59.88;100690.81;7392861;19;20022;-67
2022/06/30 07:50:16;;;;;;;5.63;4.97;;;;;;;22.66;60.03;100688.34;7395159;19;20018;-67
2022/06/30 07:52:47;;;;;;;7.50;5.20;;;;;;;22.65;60.07;100682.16;7393893;19;20078;-67
2022/06/30 07:55:16;;;;;;;5.30;4.80;;;;;;;22.68;60.29;100689.09;7393869;19;20025;-67
2022/06/30 07:57:47;;;;;;;5.40;4.70;;;;;;;22.73;60.26;100689.63;7398285;19;20525;-67
2022/06/30 08:00:18;;;;;;;6.95;5.57;;;;;;;22.73;60.11;100689.63;7401182;19;20078;-67
2022/06/30 08:02:46;;;;;;;6.45;5.40;;;;;;;22.74;60.10;100683.31;7401095;19;20364;-67
2022/06/30 08:05:15;;;;;;;7.82;6.20;;;;;;;22.81;59.98;100686.38;7401278;19;20028;-67
2022/06/30 08:07:43;;;;;;;8.23;6.07;;;;;;;22.88;60.06;100688.47;7399525;19;20018;-67
2022/06/30 08:10:16;;;;;;;8.25;6.25;;;;;;;22.99;59.56;100689.47;7398541;19;20017;-67
2022/06/30 08:12:45;;;;;;;7.45;6.65;;;;;;;23.06;59.63;100682.69;7401636;19;20031;-67
2022/06/30 08:15:13;;;;;;;6.47;5.88;;;;;;;23.15;59.15;100684.75;7400936;19;20371;-67
2022/06/30 08:17:42;;;;;;;6.20;5.57;;;;;;;23.22;59.01;100685.94;7399252;19;20043;-67
2022/06/30 08:20:11;;;;;;;6.30;5.43;;;;;;;23.30;58.63;100693.38;7398004;19;20035;-68
2022/06/30 08:22:40;;;;;;;9.75;6.45;;;;;;;23.37;59.00;100683.09;7400787;19;20014;-67
2022/06/30 08:25:09;;;;;;;6.13;5.55;;;;;;;23.42;58.34;100683.59;7400267;19;20018;-66
2022/06/30 08:27:40;;;;;;;7.15;6.00;;;;;;;23.48;58.58;100679.56;7397085;19;20517;-67
2022/06/30 08:30:10;;;;;;;8.90;6.40;;;;;;;23.51;58.05;100677.50;7398100;19;20023;-66
2022/06/30 08:32:40;;;;;;;6.28;5.68;;;;;;;23.50;58.38;100683.81;7398894;19;20111;-67
2022/06/30 08:35:09;;;;;;;7.32;6.03;;;;;;;23.49;58.20;100681.28;7401487;19;20350;-67
2022/06/30 08:37:37;;;;;;;7.95;6.10;;;;;;;23.54;58.25;100682.66;7399238;19;20045;-67
2022/06/30 08:42:50;;;;;;;6.40;5.85;;;;;;;23.67;57.88;100670.94;7399414;19;20018;-67
2022/06/30 08:45:20;;;;;;;6.25;5.50;;;;;;;23.72;58.11;100668.75;7397241;19;20007;-69
2022/06/30 08:47:50;;;;;;;6.43;5.50;;;;;;;23.78;58.14;100675.47;7398516;19;20019;-68
2022/06/30 08:50:20;;;;;;;8.77;5.35;;;;;;;23.83;58.04;100684.00;7399886;19;20014;-71
2022/06/30 08:52:51;;;;;;;8.30;5.63;;;;;;;23.91;57.48;100676.25;7397446;19;20039;-73
2022/06/30 08:55:22;;;;;;;7.97;5.65;;;;;;;23.99;57.16;100667.59;7400076;19;20365;-73
2022/06/30 08:57:57;;;;;;;6.18;5.57;;;;;;;24.08;57.25;100662.34;7397727;19;20485;-68
2022/06/30 09:00:26;;;;;;;5.97;5.43;;;;;;;24.17;57.15;100660.75;7399558;19;20509;-70
2022/06/30 09:02:54;;;;;;;6.40;5.80;;;;;;;24.28;56.94;100662.56;7399290;19;20015;-69
2022/06/30 09:05:23;;;;;;;8.23;5.90;;;;;;;24.37;56.45;100656.44;7399284;19;20025;-69
2022/06/30 09:07:51;;;;;;;9.10;5.80;;;;;;;24.46;56.91;100659.38;7393877;19;20018;-71
2022/06/30 09:10:22;;;;;;;6.30;5.32;;;;;;;24.52;56.56;100648.97;7400515;19;20038;-71
2022/06/30 09:13:02;;;;;;;5.35;4.85;;;;;;;24.64;56.51;100657.00;7399745;19;20036;-68
2022/06/30 09:15:32;;;;;;;8.10;5.47;;;;;;;24.74;56.19;100657.97;7397509;19;20027;-69
2022/06/30 09:18:01;;;;;;;7.43;5.05;;;;;;;24.86;55.93;100659.63;7395700;19;20018;-69
2022/06/30 09:20:37;;;;;;;8.10;5.72;;;;;;;24.97;55.36;100658.75;7398876;19;20031;-69
2022/06/30 09:23:22;;;;;;;6.55;5.07;;;;;;;25.04;55.02;100651.84;7396948;19;20011;-67
2022/06/30 09:25:51;;;;;;;8.48;5.63;;;;;;;25.11;55.16;100648.66;7396001;19;20491;-70
2022/06/30 09:28:42;;;;;;;7.07;6.18;;;;;;;25.14;54.32;100651.94;7395610;19;20345;-68
2022/06/30 09:31:11;;;;;;;8.13;5.88;;;;;;;25.18;54.87;100648.00;7398391;19;20371;-68
2022/06/30 09:33:44;;;;;;;8.77;5.30;;;;;;;25.24;54.01;100652.00;7396056;19;20489;-68
2022/06/30 09:36:24;;;;;;;9.88;5.90;;;;;;;25.27;54.01;100642.84;7396172;19;20086;-68
2022/06/30 09:39:05;;;;;;;7.22;5.35;;;;;;;25.32;53.70;100640.59;7396343;19;20014;-68
2022/06/30 09:41:35;;;;;;;6.47;5.72;;;;;;;25.32;53.97;100645.97;7395252;19;20369;-70
2022/06/30 09:44:07;;;;;;;8.55;5.40;;;;;;;25.32;54.13;100657.53;7396550;19;20087;-68
2022/06/30 09:46:37;;;;;;;7.00;5.82;;;;;;;25.34;54.03;100655.59;7395401;19;20015;-69
2022/06/30 09:49:06;;;;;;;6.70;6.10;;;;;;;25.36;54.22;100652.81;7395079;19;20480;-70
2022/06/30 09:51:43;;;;;;;11.90;6.72;;;;;;;25.38;53.99;100653.53;7395706;19;20010;-69
2022/06/30 09:54:13;;;;;;;7.45;6.07;;;;;;;25.39;54.19;100657.06;7396606;19;20014;-69
2022/06/30 09:56:42;;;;;;;6.57;5.88;;;;;;;25.42;54.18;100646.91;7397499;19;20018;-68
2022/06/30 09:59:26;;;;;;;8.70;5.93;;;;;;;25.44;53.55;100642.28;7395944;19;20019;-69
2022/06/30 10:01:55;;;;;;;8.40;6.45;;;;;;;25.47;53.78;100633.94;7397524;19;20362;-69
2022/06/30 10:04:23;;;;;;;7.45;6.00;;;;;;;25.53;54.03;100636.09;7397011;19;20432;-69
2022/06/30 10:06:52;;;;;;;6.85;5.65;;;;;;;25.60;53.97;100633.72;7397136;19;20022;-70
2022/06/30 10:09:21;;;;;;;7.07;6.25;;;;;;;25.66;53.65;100635.84;7394752;19;20014;-68
2022/06/30 10:11:52;;;;;;;9.60;5.88;;;;;;;25.72;53.78;100639.84;7396896;19;20038;-70
2022/06/30 10:14:27;;;;;;;8.52;5.80;;;;;;;25.80;53.04;100644.56;7396492;19;20014;-69
2022/06/30 10:16:56;;;;;;;8.23;5.95;;;;;;;25.86;52.89;100635.97;7396529;19;20022;-69
2022/06/30 10:19:32;;;;;;;7.10;5.68;;;;;;;25.94;52.64;100632.59;7392990;19;20014;-69
2022/06/30 10:22:00;;;;;;;6.30;5.70;;;;;;;25.98;52.90;100631.31;7394210;19;20344;-71
2022/06/30 10:24:29;;;;;;;6.85;6.10;;;;;;;26.01;52.25;100636.44;7393614;19;20021;-73
2022/06/30 10:27:14;;;;;;;5.72;5.22;;;;;;;26.05;52.60;100645.94;7395092;19;20367;-71
2022/06/30 10:29:49;;;;;;;6.47;5.85;;;;;;;26.10;52.49;100646.38;7394159;19;20480;-71
2022/06/30 10:32:26;;;;;;;6.43;5.28;;;;;;;26.13;52.23;100634.50;7395008;19;20027;-69
2022/06/30 10:35:13;;;;;;;7.22;6.43;;;;;;;26.18;52.05;100637.63;7395865;19;20019;-68
2022/06/30 10:37:47;;;;;;;9.32;6.15;;;;;;;26.26;51.76;100635.13;7394661;19;20014;-69
2022/06/30 10:40:28;;;;;;;7.55;6.30;;;;;;;26.34;51.87;100626.34;7396493;19;20018;-72
2022/06/30 10:42:59;;;;;;;6.90;5.97;;;;;;;26.44;51.37;100631.75;7393893;19;20027;-66
2022/06/30 10:45:56;;;;;;;5.95;5.40;;;;;;;26.55;50.92;100638.81;7394544;19;20029;-69
2022/06/30 10:48:27;;;;;;;6.60;5.95;;;;;;;26.55;51.06;100623.56;7394485;19;20023;-68
2022/06/30 10:50:56;;;;;;;7.90;6.07;;;;;;;26.57;50.72;100621.56;7396689;19;20337;-70
2022/06/30 10:53:54;;;;;;;6.55;5.95;;;;;;;26.64;50.69;100627.22;7395934;19;20035;-69
2022/06/30 10:56:25;;;;;;;8.70;7.20;;;;;;;26.77;50.60;100616.22;7395328;19;20011;-70
2022/06/30 10:59:13;;;;;;;6.90;6.28;;;;;;;26.87;50.65;100622.44;7394599;19;20367;-70
2022/06/30 11:02:19;;;;;;;7.78;5.80;;;;;;;26.94;50.24;100618.19;7396041;19;20035;-69
2022/06/30 11:04:50;;;;;;;5.57;5.07;;;;;;;27.06;50.57;100626.97;7395879;19;20031;-68
2022/06/30 11:07:21;;;;;;;6.90;5.47;;;;;;;27.21;50.49;100624.66;7394454;19;20019;-70
2022/06/30 11:10:18;;;;;;;5.75;5.03;;;;;;;27.33;49.92;100621.81;7394405;19;20014;-70
2022/06/30 11:13:07;;;;;;;55.58;9.38;;;;;;;27.46;49.90;100615.13;7392847;19;20581;-69
2022/06/30 11:15:54;;;;;;;8.55;5.47;;;;;;;27.61;49.36;100610.13;7393332;19;20018;-68
2022/06/30 11:18:26;;;;;;;5.70;5.20;;;;;;;27.76;49.23;100612.31;7392229;19;20022;-68
2022/06/30 11:20:56;;;;;;;6.07;5.50;;;;;;;27.87;48.84;100608.59;7392947;19;20031;-68
2022/06/30 11:23:25;;;;;;;6.35;5.72;;;;;;;27.87;48.51;100606.72;7393513;19;20040;-68
2022/06/30 11:28:39;;;;;;;6.05;5.43;;;;;;;27.98;48.15;100600.31;7391790;19;20014;-68
2022/06/30 11:31:07;;;;;;;5.47;4.97;;;;;;;28.15;48.13;100600.53;7390035;19;20383;-69
2022/06/30 11:33:53;;;;;;;5.97;5.28;;;;;;;28.34;47.81;100608.47;7391487;19;20484;-68
2022/06/30 11:36:21;;;;;;;5.00;4.60;;;;;;;28.55;47.52;100593.81;7394143;19;20555;-69
2022/06/30 11:38:55;;;;;;;5.70;5.20;;;;;;;28.75;47.06;100595.38;7392564;19;20585;-69
2022/06/30 11:44:06;;;;;;;5.78;4.82;;;;;;;29.13;45.87;100589.78;7394473;19;20361;-69
2022/06/30 11:46:36;;;;;;;7.47;5.00;;;;;;;29.22;45.57;100579.88;7392410;19;20031;-69
2022/06/30 11:49:09;;;;;;;8.00;5.65;;;;;;;29.35;45.15;100579.47;7392167;19;20027;-70
2022/06/30 11:51:38;;;;;;;6.23;4.80;;;;;;;29.49;44.56;100578.00;7395123;19;20021;-68
2022/06/30 11:54:07;;;;;;;5.40;4.90;;;;;;;29.66;43.92;100579.78;7392417;19;20035;-71
2022/06/30 11:56:46;;;;;;;5.47;4.97;;;;;;;29.84;43.22;100578.84;7393492;19;20375;-70
2022/06/30 11:59:15;;;;;;;6.97;5.60;;;;;;;30.02;42.83;100576.88;7392666;19;20045;-70